sensor_id;sensor_type;location;lat;lon;timestamp;P1;durP1;ratioP1;P2;durP2;ratioP2
11911;SDS011;6016;41.928;25.556;2024-01-11T00:00:43;18.23;;;6.97;;
11911;SDS011;6016;41.928;25.556;2024-01-11T00:03:12;18.10;;;7.55;;
11911;SDS011;6016;41.928;25.556;2024-01-11T00:05:39;18.38;;;7.63;;
11911;SDS011;6016;41.928;25.556;2024-01-11T00:08:06;21.55;;;7.60;;
11911;SDS011;6016;41.928;25.556;2024-01-11T00:10:33;22.60;;;8.75;;
11911;SDS011;6016;41.928;25.556;2024-01-11T00:13:00;26.10;;;10.80;;
11911;SDS011;6016;41.928;25.556;2024-01-11T00:15:27;24.27;;;9.48;;
11911;SDS011;6016;41.928;25.556;2024-01-11T00:17:55;24.50;;;9.95;;
11911;SDS011;6016;41.928;25.556;2024-01-11T00:20:23;23.92;;;9.43;;
11911;SDS011;6016;41.928;25.556;2024-01-11T00:22:50;25.10;;;9.98;;
11911;SDS011;6016;41.928;25.556;2024-01-11T00:25:17;24.08;;;10.13;;
11911;SDS011;6016;41.928;25.556;2024-01-11T00:27:44;20.88;;;8.40;;
11911;SDS011;6016;41.928;25.556;2024-01-11T00:30:11;21.38;;;8.48;;
11911;SDS011;6016;41.928;25.556;2024-01-11T00:32:38;19.77;;;8.18;;
11911;SDS011;6016;41.928;25.556;2024-01-11T00:35:06;14.77;;;6.50;;
11911;SDS011;6016;41.928;25.556;2024-01-11T00:37:34;12.57;;;4.93;;
11911;SDS011;6016;41.928;25.556;2024-01-11T00:40:01;11.30;;;4.60;;
11911;SDS011;6016;41.928;25.556;2024-01-11T00:42:28;7.80;;;3.63;;
11911;SDS011;6016;41.928;25.556;2024-01-11T00:44:55;9.77;;;4.60;;
11911;SDS011;6016;41.928;25.556;2024-01-11T00:47:22;8.75;;;4.38;;
11911;SDS011;6016;41.928;25.556;2024-01-11T00:49:49;9.18;;;4.10;;
11911;SDS011;6016;41.928;25.556;2024-01-11T00:52:16;6.68;;;3.30;;
11911;SDS011;6016;41.928;25.556;2024-01-11T00:54:44;5.78;;;2.90;;
11911;SDS011;6016;41.928;25.556;2024-01-11T00:57:11;7.03;;;3.03;;
11911;SDS011;6016;41.928;25.556;2024-01-11T00:59:39;7.22;;;3.60;;
11911;SDS011;6016;41.928;25.556;2024-01-11T01:02:06;8.35;;;3.45;;
11911;SDS011;6016;41.928;25.556;2024-01-11T01:04:34;7.43;;;3.15;;
11911;SDS011;6016;41.928;25.556;2024-01-11T01:07:04;5.15;;;3.05;;
11911;SDS011;6016;41.928;25.556;2024-01-11T01:09:31;7.93;;;3.25;;
11911;SDS011;6016;41.928;25.556;2024-01-11T01:11:59;8.32;;;3.53;;
11911;SDS011;6016;41.928;25.556;2024-01-11T01:14:27;5.03;;;3.00;;
11911;SDS011;6016;41.928;25.556;2024-01-11T01:16:53;6.50;;;3.28;;
11911;SDS011;6016;41.928;25.556;2024-01-11T01:19:20;6.20;;;2.50;;
11911;SDS011;6016;41.928;25.556;2024-01-11T01:21:47;4.45;;;2.53;;
11911;SDS011;6016;41.928;25.556;2024-01-11T01:24:15;4.22;;;2.20;;
11911;SDS011;6016;41.928;25.556;2024-01-11T01:26:42;5.75;;;2.13;;
11911;SDS011;6016;41.928;25.556;2024-01-11T01:29:10;4.93;;;2.17;;
11911;SDS011;6016;41.928;25.556;2024-01-11T01:31:37;8.10;;;3.40;;
11911;SDS011;6016;41.928;25.556;2024-01-11T01:34:04;16.65;;;7.22;;
11911;SDS011;6016;41.928;25.556;2024-01-11T01:36:33;21.65;;;8.00;;
11911;SDS011;6016;41.928;25.556;2024-01-11T01:39:00;15.95;;;6.82;;
11911;SDS011;6016;41.928;25.556;2024-01-11T01:41:28;16.50;;;6.88;;
11911;SDS011;6016;41.928;25.556;2024-01-11T01:43:55;18.88;;;8.30;;
11911;SDS011;6016;41.928;25.556;2024-01-11T01:46:24;16.70;;;7.38;;
11911;SDS011;6016;41.928;25.556;2024-01-11T01:48:52;20.55;;;7.75;;
11911;SDS011;6016;41.928;25.556;2024-01-11T01:51:21;15.48;;;6.60;;
11911;SDS011;6016;41.928;25.556;2024-01-11T01:53:50;15.15;;;6.18;;
11911;SDS011;6016;41.928;25.556;2024-01-11T01:56:19;15.27;;;6.25;;
11911;SDS011;6016;41.928;25.556;2024-01-11T01:58:47;15.75;;;6.43;;
11911;SDS011;6016;41.928;25.556;2024-01-11T02:01:16;13.00;;;5.47;;
11911;SDS011;6016;41.928;25.556;2024-01-11T02:03:46;6.50;;;3.05;;
11911;SDS011;6016;41.928;25.556;2024-01-11T02:06:17;5.43;;;3.03;;
11911;SDS011;6016;41.928;25.556;2024-01-11T02:08:48;6.30;;;3.53;;
11911;SDS011;6016;41.928;25.556;2024-01-11T02:11:18;6.00;;;3.22;;
11911;SDS011;6016;41.928;25.556;2024-01-11T02:13:46;6.07;;;3.28;;
11911;SDS011;6016;41.928;25.556;2024-01-11T02:16:13;7.57;;;3.40;;
11911;SDS011;6016;41.928;25.556;2024-01-11T02:18:40;5.90;;;2.80;;
11911;SDS011;6016;41.928;25.556;2024-01-11T02:21:10;5.65;;;3.05;;
11911;SDS011;6016;41.928;25.556;2024-01-11T02:23:41;6.43;;;3.47;;
11911;SDS011;6016;41.928;25.556;2024-01-11T02:26:13;8.05;;;3.50;;
11911;SDS011;6016;41.928;25.556;2024-01-11T02:28:43;7.00;;;3.40;;
11911;SDS011;6016;41.928;25.556;2024-01-11T02:31:11;5.85;;;3.20;;
11911;SDS011;6016;41.928;25.556;2024-01-11T02:33:40;3.95;;;2.30;;
11911;SDS011;6016;41.928;25.556;2024-01-11T02:36:08;5.82;;;2.70;;
11911;SDS011;6016;41.928;25.556;2024-01-11T02:38:35;4.97;;;2.50;;
11911;SDS011;6016;41.928;25.556;2024-01-11T02:41:03;5.80;;;2.88;;
11911;SDS011;6016;41.928;25.556;2024-01-11T02:43:32;5.75;;;2.92;;
11911;SDS011;6016;41.928;25.556;2024-01-11T02:46:01;5.50;;;2.22;;
11911;SDS011;6016;41.928;25.556;2024-01-11T02:48:28;3.38;;;2.10;;
11911;SDS011;6016;41.928;25.556;2024-01-11T02:50:55;5.40;;;2.55;;
11911;SDS011;6016;41.928;25.556;2024-01-11T02:53:22;6.30;;;3.53;;
11911;SDS011;6016;41.928;25.556;2024-01-11T02:55:50;7.72;;;3.53;;
11911;SDS011;6016;41.928;25.556;2024-01-11T02:58:17;6.85;;;3.47;;
11911;SDS011;6016;41.928;25.556;2024-01-11T03:00:45;6.03;;;3.03;;
11911;SDS011;6016;41.928;25.556;2024-01-11T03:03:12;6.35;;;2.83;;
11911;SDS011;6016;41.928;25.556;2024-01-11T03:05:40;5.00;;;2.53;;
11911;SDS011;6016;41.928;25.556;2024-01-11T03:08:07;6.07;;;2.72;;
11911;SDS011;6016;41.928;25.556;2024-01-11T03:10:34;5.65;;;2.63;;
11911;SDS011;6016;41.928;25.556;2024-01-11T03:13:04;8.57;;;4.00;;
11911;SDS011;6016;41.928;25.556;2024-01-11T03:15:32;7.07;;;3.65;;
11911;SDS011;6016;41.928;25.556;2024-01-11T03:18:00;7.88;;;3.40;;
11911;SDS011;6016;41.928;25.556;2024-01-11T03:20:27;8.77;;;3.42;;
11911;SDS011;6016;41.928;25.556;2024-01-11T03:22:54;15.75;;;4.72;;
11911;SDS011;6016;41.928;25.556;2024-01-11T03:25:21;12.57;;;5.30;;
11911;SDS011;6016;41.928;25.556;2024-01-11T03:27:48;14.50;;;6.00;;
11911;SDS011;6016;41.928;25.556;2024-01-11T03:30:15;14.48;;;5.82;;
11911;SDS011;6016;41.928;25.556;2024-01-11T03:32:42;15.75;;;6.05;;
11911;SDS011;6016;41.928;25.556;2024-01-11T03:35:11;10.82;;;4.97;;
11911;SDS011;6016;41.928;25.556;2024-01-11T03:37:38;13.10;;;5.75;;
11911;SDS011;6016;41.928;25.556;2024-01-11T03:40:05;9.82;;;4.45;;
11911;SDS011;6016;41.928;25.556;2024-01-11T03:42:33;13.57;;;5.20;;
11911;SDS011;6016;41.928;25.556;2024-01-11T03:45:00;10.75;;;4.25;;
11911;SDS011;6016;41.928;25.556;2024-01-11T03:47:28;10.07;;;4.50;;
11911;SDS011;6016;41.928;25.556;2024-01-11T03:49:55;10.38;;;5.05;;
11911;SDS011;6016;41.928;25.556;2024-01-11T03:52:23;10.25;;;4.70;;
11911;SDS011;6016;41.928;25.556;2024-01-11T03:54:50;12.77;;;5.53;;
11911;SDS011;6016;41.928;25.556;2024-01-11T03:57:17;10.60;;;5.00;;
11911;SDS011;6016;41.928;25.556;2024-01-11T03:59:44;8.05;;;4.70;;
11911;SDS011;6016;41.928;25.556;2024-01-11T04:02:11;7.82;;;4.57;;
11911;SDS011;6016;41.928;25.556;2024-01-11T04:04:39;10.10;;;4.90;;
11911;SDS011;6016;41.928;25.556;2024-01-11T04:07:07;11.52;;;5.00;;
11911;SDS011;6016;41.928;25.556;2024-01-11T04:09:38;9.65;;;5.00;;
11911;SDS011;6016;41.928;25.556;2024-01-11T04:12:04;10.10;;;5.30;;
11911;SDS011;6016;41.928;25.556;2024-01-11T04:14:32;9.90;;;4.80;;
11911;SDS011;6016;41.928;25.556;2024-01-11T04:16:59;9.80;;;5.05;;
11911;SDS011;6016;41.928;25.556;2024-01-11T04:19:26;10.07;;;4.82;;
11911;SDS011;6016;41.928;25.556;2024-01-11T04:21:53;19.23;;;7.53;;
11911;SDS011;6016;41.928;25.556;2024-01-11T04:24:20;12.38;;;6.38;;
11911;SDS011;6016;41.928;25.556;2024-01-11T04:26:48;10.40;;;5.03;;
11911;SDS011;6016;41.928;25.556;2024-01-11T04:29:15;10.45;;;5.45;;
11911;SDS011;6016;41.928;25.556;2024-01-11T04:31:42;12.82;;;6.53;;
11911;SDS011;6016;41.928;25.556;2024-01-11T04:34:09;13.60;;;5.80;;
11911;SDS011;6016;41.928;25.556;2024-01-11T04:36:37;12.20;;;5.97;;
11911;SDS011;6016;41.928;25.556;2024-01-11T04:39:04;9.77;;;4.63;;
11911;SDS011;6016;41.928;25.556;2024-01-11T04:41:32;11.48;;;5.22;;
11911;SDS011;6016;41.928;25.556;2024-01-11T04:44:03;10.13;;;4.57;;
11911;SDS011;6016;41.928;25.556;2024-01-11T04:46:30;8.32;;;3.63;;
11911;SDS011;6016;41.928;25.556;2024-01-11T04:48:57;7.45;;;3.22;;
11911;SDS011;6016;41.928;25.556;2024-01-11T04:51:24;8.27;;;2.90;;
11911;SDS011;6016;41.928;25.556;2024-01-11T04:53:51;7.10;;;3.55;;
11911;SDS011;6016;41.928;25.556;2024-01-11T04:56:18;8.32;;;3.45;;
11911;SDS011;6016;41.928;25.556;2024-01-11T04:58:45;17.73;;;8.00;;
11911;SDS011;6016;41.928;25.556;2024-01-11T05:01:15;31.48;;;12.30;;
11911;SDS011;6016;41.928;25.556;2024-01-11T05:03:43;35.30;;;13.48;;
11911;SDS011;6016;41.928;25.556;2024-01-11T05:06:14;28.25;;;12.70;;
11911;SDS011;6016;41.928;25.556;2024-01-11T05:08:42;25.17;;;10.38;;
11911;SDS011;6016;41.928;25.556;2024-01-11T05:11:14;24.23;;;10.75;;
11911;SDS011;6016;41.928;25.556;2024-01-11T05:13:42;21.75;;;9.60;;
11911;SDS011;6016;41.928;25.556;2024-01-11T05:16:17;17.77;;;8.27;;
11911;SDS011;6016;41.928;25.556;2024-01-11T05:18:45;16.13;;;7.38;;
11911;SDS011;6016;41.928;25.556;2024-01-11T05:21:12;32.53;;;12.77;;
11911;SDS011;6016;41.928;25.556;2024-01-11T05:23:40;26.27;;;11.88;;
11911;SDS011;6016;41.928;25.556;2024-01-11T05:26:07;27.08;;;11.57;;
11911;SDS011;6016;41.928;25.556;2024-01-11T05:28:33;23.15;;;8.88;;
11911;SDS011;6016;41.928;25.556;2024-01-11T05:31:00;13.60;;;5.80;;
11911;SDS011;6016;41.928;25.556;2024-01-11T05:33:29;12.25;;;4.78;;
11911;SDS011;6016;41.928;25.556;2024-01-11T05:35:56;15.13;;;6.03;;
11911;SDS011;6016;41.928;25.556;2024-01-11T05:38:23;24.15;;;9.88;;
11911;SDS011;6016;41.928;25.556;2024-01-11T05:40:50;25.58;;;11.75;;
11911;SDS011;6016;41.928;25.556;2024-01-11T05:43:17;31.80;;;13.63;;
11911;SDS011;6016;41.928;25.556;2024-01-11T05:45:44;39.75;;;15.27;;
11911;SDS011;6016;41.928;25.556;2024-01-11T05:48:11;43.72;;;17.60;;
11911;SDS011;6016;41.928;25.556;2024-01-11T05:50:40;44.42;;;17.63;;
11911;SDS011;6016;41.928;25.556;2024-01-11T05:53:07;42.20;;;15.98;;
11911;SDS011;6016;41.928;25.556;2024-01-11T05:55:34;41.17;;;17.15;;
11911;SDS011;6016;41.928;25.556;2024-01-11T05:58:01;38.65;;;17.55;;
11911;SDS011;6016;41.928;25.556;2024-01-11T06:00:28;33.83;;;14.82;;
11911;SDS011;6016;41.928;25.556;2024-01-11T06:02:55;21.75;;;10.65;;
11911;SDS011;6016;41.928;25.556;2024-01-11T06:05:22;25.70;;;10.05;;
11911;SDS011;6016;41.928;25.556;2024-01-11T06:07:51;17.40;;;7.65;;
11911;SDS011;6016;41.928;25.556;2024-01-11T06:10:18;15.55;;;5.00;;
11911;SDS011;6016;41.928;25.556;2024-01-11T06:12:45;12.63;;;5.55;;
11911;SDS011;6016;41.928;25.556;2024-01-11T06:15:12;20.45;;;7.93;;
11911;SDS011;6016;41.928;25.556;2024-01-11T06:17:39;32.13;;;10.85;;
11911;SDS011;6016;41.928;25.556;2024-01-11T06:20:06;28.42;;;11.13;;
11911;SDS011;6016;41.928;25.556;2024-01-11T06:22:35;28.40;;;11.43;;
11911;SDS011;6016;41.928;25.556;2024-01-11T06:25:04;46.88;;;18.98;;
11911;SDS011;6016;41.928;25.556;2024-01-11T06:27:31;33.88;;;14.20;;
11911;SDS011;6016;41.928;25.556;2024-01-11T06:29:58;17.52;;;7.70;;
11911;SDS011;6016;41.928;25.556;2024-01-11T06:32:25;12.80;;;5.85;;
11911;SDS011;6016;41.928;25.556;2024-01-11T06:34:52;12.45;;;6.72;;
11911;SDS011;6016;41.928;25.556;2024-01-11T06:37:19;20.42;;;9.35;;
11911;SDS011;6016;41.928;25.556;2024-01-11T06:39:46;18.73;;;7.75;;
11911;SDS011;6016;41.928;25.556;2024-01-11T06:42:14;14.32;;;6.38;;
11911;SDS011;6016;41.928;25.556;2024-01-11T06:44:41;15.55;;;6.60;;
11911;SDS011;6016;41.928;25.556;2024-01-11T06:47:08;14.02;;;6.43;;
11911;SDS011;6016;41.928;25.556;2024-01-11T06:49:38;15.48;;;6.82;;
11911;SDS011;6016;41.928;25.556;2024-01-11T06:52:05;17.20;;;7.43;;
11911;SDS011;6016;41.928;25.556;2024-01-11T06:54:32;17.60;;;8.63;;
11911;SDS011;6016;41.928;25.556;2024-01-11T06:57:00;19.95;;;8.68;;
11911;SDS011;6016;41.928;25.556;2024-01-11T06:59:28;13.57;;;7.10;;
11911;SDS011;6016;41.928;25.556;2024-01-11T07:01:55;11.82;;;4.50;;
11911;SDS011;6016;41.928;25.556;2024-01-11T07:04:22;22.67;;;9.52;;
11911;SDS011;6016;41.928;25.556;2024-01-11T07:06:49;72.97;;;29.33;;
11911;SDS011;6016;41.928;25.556;2024-01-11T07:09:16;76.35;;;31.40;;
11911;SDS011;6016;41.928;25.556;2024-01-11T07:11:43;76.97;;;31.67;;
11911;SDS011;6016;41.928;25.556;2024-01-11T07:14:10;87.05;;;32.78;;
11911;SDS011;6016;41.928;25.556;2024-01-11T07:16:39;90.00;;;34.75;;
11911;SDS011;6016;41.928;25.556;2024-01-11T07:19:06;80.00;;;31.33;;
11911;SDS011;6016;41.928;25.556;2024-01-11T07:21:33;79.50;;;29.20;;
11911;SDS011;6016;41.928;25.556;2024-01-11T07:24:00;84.22;;;30.30;;
11911;SDS011;6016;41.928;25.556;2024-01-11T07:26:27;72.70;;;27.48;;
11911;SDS011;6016;41.928;25.556;2024-01-11T07:28:54;74.82;;;29.45;;
11911;SDS011;6016;41.928;25.556;2024-01-11T07:31:21;75.65;;;30.02;;
11911;SDS011;6016;41.928;25.556;2024-01-11T07:33:49;76.57;;;31.45;;
11911;SDS011;6016;41.928;25.556;2024-01-11T07:36:16;94.45;;;35.65;;
11911;SDS011;6016;41.928;25.556;2024-01-11T07:38:43;84.60;;;34.03;;
11911;SDS011;6016;41.928;25.556;2024-01-11T07:41:10;75.10;;;32.67;;
11911;SDS011;6016;41.928;25.556;2024-01-11T07:43:38;60.03;;;24.95;;
11911;SDS011;6016;41.928;25.556;2024-01-11T07:46:05;39.88;;;16.98;;
11911;SDS011;6016;41.928;25.556;2024-01-11T07:48:32;31.55;;;13.85;;
11911;SDS011;6016;41.928;25.556;2024-01-11T07:51:01;18.13;;;8.20;;
11911;SDS011;6016;41.928;25.556;2024-01-11T07:53:29;17.77;;;7.25;;
11911;SDS011;6016;41.928;25.556;2024-01-11T07:55:57;12.80;;;5.40;;
11911;SDS011;6016;41.928;25.556;2024-01-11T07:58:24;13.13;;;5.63;;
11911;SDS011;6016;41.928;25.556;2024-01-11T08:00:51;13.68;;;5.82;;
11911;SDS011;6016;41.928;25.556;2024-01-11T08:03:19;22.65;;;10.95;;
11911;SDS011;6016;41.928;25.556;2024-01-11T08:05:46;70.15;;;30.13;;
11911;SDS011;6016;41.928;25.556;2024-01-11T08:08:16;69.88;;;30.45;;
11911;SDS011;6016;41.928;25.556;2024-01-11T08:10:43;17.90;;;8.75;;
11911;SDS011;6016;41.928;25.556;2024-01-11T08:13:11;9.43;;;4.38;;
11911;SDS011;6016;41.928;25.556;2024-01-11T08:15:38;8.13;;;3.92;;
11911;SDS011;6016;41.928;25.556;2024-01-11T08:18:05;8.57;;;3.75;;
11911;SDS011;6016;41.928;25.556;2024-01-11T08:20:32;7.63;;;3.70;;
11911;SDS011;6016;41.928;25.556;2024-01-11T08:22:59;6.47;;;3.78;;
11911;SDS011;6016;41.928;25.556;2024-01-11T08:25:28;9.48;;;4.28;;
11911;SDS011;6016;41.928;25.556;2024-01-11T08:27:55;9.82;;;4.80;;
11911;SDS011;6016;41.928;25.556;2024-01-11T08:30:22;10.70;;;5.40;;
11911;SDS011;6016;41.928;25.556;2024-01-11T08:32:49;9.40;;;4.95;;
11911;SDS011;6016;41.928;25.556;2024-01-11T08:35:17;11.88;;;5.50;;
11911;SDS011;6016;41.928;25.556;2024-01-11T08:37:44;18.33;;;7.47;;
11911;SDS011;6016;41.928;25.556;2024-01-11T08:40:11;15.98;;;7.00;;
11911;SDS011;6016;41.928;25.556;2024-01-11T08:42:40;16.73;;;6.68;;
11911;SDS011;6016;41.928;25.556;2024-01-11T08:45:08;15.07;;;5.90;;
11911;SDS011;6016;41.928;25.556;2024-01-11T08:47:35;12.85;;;6.38;;
11911;SDS011;6016;41.928;25.556;2024-01-11T08:50:04;10.45;;;4.78;;
11911;SDS011;6016;41.928;25.556;2024-01-11T08:52:32;9.15;;;4.38;;
11911;SDS011;6016;41.928;25.556;2024-01-11T08:54:59;10.32;;;4.90;;
11911;SDS011;6016;41.928;25.556;2024-01-11T08:57:26;12.45;;;5.78;;
11911;SDS011;6016;41.928;25.556;2024-01-11T08:59:55;17.80;;;7.97;;
11911;SDS011;6016;41.928;25.556;2024-01-11T09:02:22;10.70;;;5.63;;
11911;SDS011;6016;41.928;25.556;2024-01-11T09:04:49;11.85;;;5.03;;
11911;SDS011;6016;41.928;25.556;2024-01-11T09:07:16;10.63;;;5.43;;
11911;SDS011;6016;41.928;25.556;2024-01-11T09:09:43;12.85;;;5.88;;
11911;SDS011;6016;41.928;25.556;2024-01-11T09:12:11;10.85;;;5.35;;
11911;SDS011;6016;41.928;25.556;2024-01-11T09:14:38;30.38;;;12.30;;
11911;SDS011;6016;41.928;25.556;2024-01-11T09:17:07;17.20;;;7.88;;
11911;SDS011;6016;41.928;25.556;2024-01-11T09:19:34;12.40;;;6.30;;
11911;SDS011;6016;41.928;25.556;2024-01-11T09:22:03;24.00;;;8.93;;
11911;SDS011;6016;41.928;25.556;2024-01-11T09:24:30;20.25;;;9.75;;
11911;SDS011;6016;41.928;25.556;2024-01-11T09:26:57;17.23;;;7.70;;
11911;SDS011;6016;41.928;25.556;2024-01-11T09:29:24;14.68;;;6.07;;
11911;SDS011;6016;41.928;25.556;2024-01-11T09:31:51;12.93;;;6.35;;
11911;SDS011;6016;41.928;25.556;2024-01-11T09:34:19;14.13;;;6.25;;
11911;SDS011;6016;41.928;25.556;2024-01-11T09:36:46;15.35;;;7.57;;
11911;SDS011;6016;41.928;25.556;2024-01-11T09:39:13;15.15;;;6.32;;
11911;SDS011;6016;41.928;25.556;2024-01-11T09:41:41;18.08;;;7.75;;
11911;SDS011;6016;41.928;25.556;2024-01-11T09:44:13;15.13;;;7.38;;
11911;SDS011;6016;41.928;25.556;2024-01-11T09:46:40;15.98;;;7.38;;
11911;SDS011;6016;41.928;25.556;2024-01-11T09:49:08;15.38;;;7.55;;
11911;SDS011;6016;41.928;25.556;2024-01-11T09:51:38;14.45;;;7.00;;
11911;SDS011;6016;41.928;25.556;2024-01-11T09:56:36;12.45;;;6.50;;
11911;SDS011;6016;41.928;25.556;2024-01-11T09:59:04;14.60;;;6.07;;
11911;SDS011;6016;41.928;25.556;2024-01-11T10:01:34;18.52;;;8.13;;
11911;SDS011;6016;41.928;25.556;2024-01-11T10:04:02;16.13;;;7.50;;
11911;SDS011;6016;41.928;25.556;2024-01-11T10:06:30;13.00;;;6.45;;
11911;SDS011;6016;41.928;25.556;2024-01-11T10:09:01;14.38;;;6.55;;
11911;SDS011;6016;41.928;25.556;2024-01-11T10:11:28;16.30;;;7.15;;
11911;SDS011;6016;41.928;25.556;2024-01-11T10:13:56;19.35;;;8.20;;
11911;SDS011;6016;41.928;25.556;2024-01-11T10:16:24;15.07;;;6.70;;
11911;SDS011;6016;41.928;25.556;2024-01-11T10:18:53;15.77;;;7.70;;
11911;SDS011;6016;41.928;25.556;2024-01-11T10:21:20;16.83;;;8.35;;
11911;SDS011;6016;41.928;25.556;2024-01-11T10:23:48;19.35;;;7.82;;
11911;SDS011;6016;41.928;25.556;2024-01-11T10:26:17;15.98;;;7.50;;
11911;SDS011;6016;41.928;25.556;2024-01-11T10:28:46;17.17;;;7.75;;
11911;SDS011;6016;41.928;25.556;2024-01-11T10:31:14;16.80;;;6.93;;
11911;SDS011;6016;41.928;25.556;2024-01-11T10:33:41;18.52;;;6.85;;
11911;SDS011;6016;41.928;25.556;2024-01-11T10:36:08;13.90;;;6.60;;
11911;SDS011;6016;41.928;25.556;2024-01-11T10:38:38;12.88;;;5.88;;
11911;SDS011;6016;41.928;25.556;2024-01-11T10:41:06;11.93;;;5.97;;
11911;SDS011;6016;41.928;25.556;2024-01-11T10:43:36;12.60;;;6.70;;
11911;SDS011;6016;41.928;25.556;2024-01-11T10:46:04;7.43;;;3.80;;
11911;SDS011;6016;41.928;25.556;2024-01-11T10:48:33;9.45;;;4.88;;
11911;SDS011;6016;41.928;25.556;2024-01-11T10:51:05;7.72;;;4.03;;
11911;SDS011;6016;41.928;25.556;2024-01-11T10:53:41;6.35;;;3.17;;
11911;SDS011;6016;41.928;25.556;2024-01-11T10:56:10;6.32;;;3.60;;
11911;SDS011;6016;41.928;25.556;2024-01-11T10:58:41;9.00;;;4.20;;
11911;SDS011;6016;41.928;25.556;2024-01-11T11:01:08;8.93;;;4.05;;
11911;SDS011;6016;41.928;25.556;2024-01-11T11:03:37;13.88;;;4.50;;
11911;SDS011;6016;41.928;25.556;2024-01-11T11:06:05;9.75;;;4.40;;
11911;SDS011;6016;41.928;25.556;2024-01-11T11:08:33;6.47;;;3.60;;
11911;SDS011;6016;41.928;25.556;2024-01-11T11:11:02;7.03;;;3.42;;
11911;SDS011;6016;41.928;25.556;2024-01-11T11:13:31;8.27;;;4.30;;
11911;SDS011;6016;41.928;25.556;2024-01-11T11:16:01;9.88;;;4.05;;
11911;SDS011;6016;41.928;25.556;2024-01-11T11:18:29;8.00;;;4.78;;
11911;SDS011;6016;41.928;25.556;2024-01-11T11:20:57;9.88;;;4.60;;
11911;SDS011;6016;41.928;25.556;2024-01-11T11:23:24;9.80;;;4.90;;
11911;SDS011;6016;41.928;25.556;2024-01-11T11:25:51;10.95;;;4.68;;
11911;SDS011;6016;41.928;25.556;2024-01-11T11:28:22;10.45;;;5.18;;
11911;SDS011;6016;41.928;25.556;2024-01-11T11:30:49;13.68;;;5.28;;
11911;SDS011;6016;41.928;25.556;2024-01-11T11:33:20;9.20;;;5.38;;
11911;SDS011;6016;41.928;25.556;2024-01-11T11:35:51;11.77;;;6.35;;
11911;SDS011;6016;41.928;25.556;2024-01-11T11:40:47;9.32;;;4.72;;
11911;SDS011;6016;41.928;25.556;2024-01-11T11:43:15;10.68;;;4.55;;
11911;SDS011;6016;41.928;25.556;2024-01-11T11:45:43;7.93;;;3.83;;
11911;SDS011;6016;41.928;25.556;2024-01-11T11:51:13;8.55;;;4.13;;
11911;SDS011;6016;41.928;25.556;2024-01-11T11:53:41;7.22;;;3.95;;
11911;SDS011;6016;41.928;25.556;2024-01-11T11:56:09;9.27;;;4.00;;
11911;SDS011;6016;41.928;25.556;2024-01-11T11:58:37;10.73;;;4.70;;
11911;SDS011;6016;41.928;25.556;2024-01-11T12:01:05;8.05;;;4.22;;
11911;SDS011;6016;41.928;25.556;2024-01-11T12:03:33;7.45;;;3.45;;
11911;SDS011;6016;41.928;25.556;2024-01-11T12:06:02;6.22;;;3.33;;
11911;SDS011;6016;41.928;25.556;2024-01-11T12:08:31;3.95;;;2.50;;
11911;SDS011;6016;41.928;25.556;2024-01-11T12:10:59;6.20;;;2.90;;
11911;SDS011;6016;41.928;25.556;2024-01-11T12:13:26;5.53;;;2.45;;
11911;SDS011;6016;41.928;25.556;2024-01-11T12:15:53;5.30;;;2.92;;
11911;SDS011;6016;41.928;25.556;2024-01-11T12:18:20;9.95;;;4.03;;
11911;SDS011;6016;41.928;25.556;2024-01-11T12:20:47;5.40;;;2.70;;
11911;SDS011;6016;41.928;25.556;2024-01-11T12:23:15;5.07;;;2.47;;
11911;SDS011;6016;41.928;25.556;2024-01-11T12:25:44;5.68;;;2.55;;
11911;SDS011;6016;41.928;25.556;2024-01-11T12:28:12;8.07;;;3.90;;
11911;SDS011;6016;41.928;25.556;2024-01-11T12:30:39;8.35;;;4.32;;
11911;SDS011;6016;41.928;25.556;2024-01-11T12:33:07;4.78;;;2.47;;
11911;SDS011;6016;41.928;25.556;2024-01-11T12:35:34;10.52;;;5.13;;
11911;SDS011;6016;41.928;25.556;2024-01-11T12:38:03;7.75;;;3.80;;
11911;SDS011;6016;41.928;25.556;2024-01-11T12:40:31;8.43;;;4.60;;
11911;SDS011;6016;41.928;25.556;2024-01-11T12:43:01;9.60;;;4.28;;
11911;SDS011;6016;41.928;25.556;2024-01-11T12:45:28;6.57;;;3.42;;
11911;SDS011;6016;41.928;25.556;2024-01-11T12:47:58;6.35;;;3.30;;
11911;SDS011;6016;41.928;25.556;2024-01-11T12:50:26;6.88;;;3.05;;
11911;SDS011;6016;41.928;25.556;2024-01-11T12:53:09;7.13;;;3.05;;
11911;SDS011;6016;41.928;25.556;2024-01-11T12:55:43;7.78;;;3.80;;
11911;SDS011;6016;41.928;25.556;2024-01-11T12:58:12;8.20;;;3.90;;
11911;SDS011;6016;41.928;25.556;2024-01-11T13:00:39;7.10;;;3.40;;
11911;SDS011;6016;41.928;25.556;2024-01-11T13:03:06;5.38;;;3.25;;
11911;SDS011;6016;41.928;25.556;2024-01-11T13:05:35;5.82;;;2.88;;
11911;SDS011;6016;41.928;25.556;2024-01-11T13:08:03;6.43;;;3.30;;
11911;SDS011;6016;41.928;25.556;2024-01-11T13:10:34;8.02;;;3.50;;
11911;SDS011;6016;41.928;25.556;2024-01-11T13:13:01;7.00;;;3.42;;
11911;SDS011;6016;41.928;25.556;2024-01-11T13:15:30;13.38;;;5.75;;
11911;SDS011;6016;41.928;25.556;2024-01-11T13:17:58;10.10;;;4.68;;
11911;SDS011;6016;41.928;25.556;2024-01-11T13:20:26;16.75;;;6.90;;
11911;SDS011;6016;41.928;25.556;2024-01-11T13:25:39;10.15;;;4.32;;
11911;SDS011;6016;41.928;25.556;2024-01-11T13:28:06;15.35;;;6.00;;
11911;SDS011;6016;41.928;25.556;2024-01-11T13:30:34;9.82;;;4.35;;
11911;SDS011;6016;41.928;25.556;2024-01-11T13:33:02;9.88;;;3.88;;
11911;SDS011;6016;41.928;25.556;2024-01-11T13:35:29;36.17;;;12.98;;
11911;SDS011;6016;41.928;25.556;2024-01-11T13:37:56;30.25;;;14.15;;
11911;SDS011;6016;41.928;25.556;2024-01-11T13:40:23;8.80;;;4.55;;
11911;SDS011;6016;41.928;25.556;2024-01-11T13:42:53;13.50;;;6.45;;
11911;SDS011;6016;41.928;25.556;2024-01-11T13:45:20;9.13;;;4.15;;
11911;SDS011;6016;41.928;25.556;2024-01-11T13:47:49;7.32;;;3.90;;
11911;SDS011;6016;41.928;25.556;2024-01-11T13:50:16;9.00;;;4.13;;
11911;SDS011;6016;41.928;25.556;2024-01-11T13:52:43;123.88;;;44.95;;
11911;SDS011;6016;41.928;25.556;2024-01-11T13:55:11;29.15;;;13.25;;
11911;SDS011;6016;41.928;25.556;2024-01-11T13:57:39;32.85;;;14.38;;
11911;SDS011;6016;41.928;25.556;2024-01-11T14:00:07;74.20;;;32.22;;
11911;SDS011;6016;41.928;25.556;2024-01-11T14:02:36;60.85;;;20.40;;
11911;SDS011;6016;41.928;25.556;2024-01-11T14:05:06;17.60;;;7.72;;
11911;SDS011;6016;41.928;25.556;2024-01-11T14:07:36;18.05;;;7.65;;
11911;SDS011;6016;41.928;25.556;2024-01-11T14:10:04;24.67;;;9.73;;
11911;SDS011;6016;41.928;25.556;2024-01-11T14:12:33;17.33;;;7.90;;
11911;SDS011;6016;41.928;25.556;2024-01-11T14:15:01;20.38;;;8.93;;
11911;SDS011;6016;41.928;25.556;2024-01-11T14:17:28;20.27;;;8.32;;
11911;SDS011;6016;41.928;25.556;2024-01-11T14:19:56;31.85;;;13.60;;
11911;SDS011;6016;41.928;25.556;2024-01-11T14:22:24;33.70;;;13.95;;
11911;SDS011;6016;41.928;25.556;2024-01-11T14:24:51;27.02;;;12.30;;
11911;SDS011;6016;41.928;25.556;2024-01-11T14:27:19;59.92;;;23.05;;
11911;SDS011;6016;41.928;25.556;2024-01-11T14:29:47;52.00;;;22.05;;
11911;SDS011;6016;41.928;25.556;2024-01-11T14:32:14;108.68;;;37.33;;
11911;SDS011;6016;41.928;25.556;2024-01-11T14:34:41;161.75;;;52.42;;
11911;SDS011;6016;41.928;25.556;2024-01-11T14:37:09;210.68;;;74.85;;
11911;SDS011;6016;41.928;25.556;2024-01-11T14:39:38;174.25;;;58.30;;
11911;SDS011;6016;41.928;25.556;2024-01-11T14:42:05;151.05;;;48.17;;
11911;SDS011;6016;41.928;25.556;2024-01-11T14:44:34;85.43;;;32.00;;
11911;SDS011;6016;41.928;25.556;2024-01-11T14:47:01;64.55;;;26.73;;
11911;SDS011;6016;41.928;25.556;2024-01-11T14:49:29;49.13;;;22.55;;